createdAt,value
2023-03-13T00:00:33.114Z,88.23
2023-03-13T00:01:33.070Z,87.82
2023-03-13T00:02:33.152Z,88.06
2023-03-13T00:03:33.052Z,87.51
2023-03-13T00:04:33.112Z,87.92
2023-03-13T00:05:33.021Z,87.61
2023-03-13T00:06:33.051Z,87.92
2023-03-13T00:07:33.022Z,86.89
2023-03-13T00:08:33.026Z,87.30
2023-03-13T00:09:32.988Z,86.89
2023-03-13T00:10:32.963Z,87.20
2023-03-13T00:11:32.994Z,86.89
2023-03-13T00:12:33.154Z,87.10
2023-03-13T00:13:32.960Z,87.30
2023-03-13T00:14:32.924Z,87.20
2023-03-13T00:15:32.911Z,86.99
2023-03-13T00:16:32.942Z,86.99
2023-03-13T00:17:32.893Z,87.20
2023-03-13T00:18:32.920Z,86.99
2023-03-13T00:19:32.893Z,87.45
2023-03-13T00:20:32.871Z,87.85
2023-03-13T00:21:32.849Z,87.40
2023-03-13T00:22:34.503Z,86.99
2023-03-13T00:23:32.829Z,86.89
2023-03-13T00:24:32.833Z,86.68
2023-03-13T00:25:32.793Z,87.51
2023-03-13T00:26:32.794Z,86.68
2023-03-13T00:27:32.814Z,86.48
2023-03-13T00:28:32.960Z,86.48
2023-03-13T00:29:32.828Z,86.58
2023-03-13T00:30:32.826Z,86.89
2023-03-13T00:31:32.844Z,86.83
2023-03-13T00:32:32.923Z,87.04
2023-03-13T00:33:32.709Z,87.04
2023-03-13T00:34:32.713Z,87.04
2023-03-13T00:35:32.768Z,87.13
2023-03-13T00:36:32.683Z,86.93
2023-03-13T00:37:32.718Z,87.40
2023-03-13T00:38:32.669Z,87.45
2023-03-13T00:39:32.663Z,87.13
2023-03-13T00:40:32.658Z,87.24
2023-03-13T00:41:32.634Z,87.51
2023-03-13T00:42:32.605Z,87.24
2023-03-13T00:43:32.646Z,87.55
2023-03-13T00:44:32.615Z,86.52
2023-03-13T00:45:32.585Z,86.17
2023-03-13T00:46:32.624Z,86.58
2023-03-13T00:47:32.560Z,86.79
2023-03-13T00:48:32.536Z,86.38
2023-03-13T00:49:32.558Z,85.97
2023-03-13T00:50:32.532Z,86.58
2023-03-13T00:51:32.506Z,86.58
2023-03-13T00:52:32.500Z,86.17
2023-03-13T00:53:32.481Z,86.68
2023-03-13T00:54:32.506Z,86.89
2023-03-13T00:55:32.473Z,86.68
2023-03-13T00:56:32.461Z,86.48
2023-03-13T00:57:32.440Z,86.68
2023-03-13T00:58:32.426Z,86.89
2023-03-13T00:59:32.468Z,86.99
2023-03-13T01:00:32.408Z,86.68
2023-03-13T01:01:32.407Z,87.20
2023-03-13T01:02:32.547Z,87.10
2023-03-13T01:03:32.457Z,86.89
2023-03-13T01:04:32.382Z,87.20
2023-03-13T01:05:32.364Z,87.10
2023-03-13T01:06:32.362Z,86.58
2023-03-13T01:07:32.333Z,86.58
2023-03-13T01:08:32.330Z,86.79
2023-03-13T01:09:32.339Z,86.99
2023-03-13T01:10:32.312Z,87.20
2023-03-13T01:11:32.287Z,87.51
2023-03-13T01:12:32.307Z,87.40
2023-03-13T01:13:32.268Z,86.68
2023-03-13T01:14:32.258Z,86.89
2023-03-13T01:15:32.311Z,86.44
2023-03-13T01:16:32.277Z,86.58
2023-03-13T01:17:32.246Z,86.89
2023-03-13T01:18:32.231Z,86.68
2023-03-13T01:19:32.202Z,86.89
2023-03-13T01:20:32.213Z,87.82
2023-03-13T01:21:32.196Z,87.92
2023-03-13T01:22:32.199Z,87.82
2023-03-13T01:23:39.194Z,87.92
2023-03-13T01:24:32.152Z,88.12
2023-03-13T01:25:32.129Z,87.71
2023-03-13T01:26:32.118Z,87.92
2023-03-13T01:27:32.129Z,87.10
2023-03-13T01:28:32.139Z,86.89
2023-03-13T01:29:32.120Z,87.20
2023-03-13T01:30:32.081Z,86.89
2023-03-13T01:31:32.178Z,86.89
2023-03-13T01:32:32.186Z,87.51
2023-03-13T01:33:32.205Z,86.99
2023-03-13T01:34:32.037Z,86.99
2023-03-13T01:35:32.120Z,87.10
2023-03-13T01:36:32.023Z,87.20
2023-03-13T01:37:32.046Z,87.40
2023-03-13T01:38:32.013Z,86.89
2023-03-13T01:39:31.982Z,86.54
2023-03-13T01:40:31.982Z,86.75
2023-03-13T01:41:32.008Z,86.85
2023-03-13T01:42:31.962Z,86.54
2023-03-13T01:43:31.939Z,87.30
2023-03-13T01:44:31.931Z,87.40
2023-03-13T01:45:31.908Z,87.51
2023-03-13T01:46:31.981Z,87.82
2023-03-13T01:47:31.926Z,87.61
2023-03-13T01:48:31.882Z,87.51
2023-03-13T01:49:31.868Z,87.10
2023-03-13T01:50:31.853Z,87.05
2023-03-13T01:51:31.871Z,86.85
2023-03-13T01:52:31.871Z,86.44
2023-03-13T01:53:31.825Z,86.33
2023-03-13T01:54:31.812Z,86.44
2023-03-13T01:55:31.812Z,86.44
2023-03-13T01:56:31.815Z,86.24
2023-03-13T01:57:31.803Z,86.13
2023-03-13T01:58:31.765Z,86.44
2023-03-13T01:59:31.797Z,86.65
2023-03-13T02:00:31.741Z,86.54
2023-03-13T02:01:31.786Z,86.85
2023-03-13T02:02:31.778Z,87.05
2023-03-13T02:03:31.747Z,86.95
2023-03-13T02:04:31.732Z,87.37
2023-03-13T02:05:31.701Z,86.95
2023-03-13T02:06:31.682Z,86.95
2023-03-13T02:07:31.678Z,87.46
2023-03-13T02:08:31.663Z,87.46
2023-03-13T02:09:31.675Z,86.95
2023-03-13T02:10:31.682Z,86.85
2023-03-13T02:11:31.622Z,86.95
2023-03-13T02:12:31.632Z,87.05
2023-03-13T02:13:31.612Z,87.88
2023-03-13T02:14:31.602Z,87.77
2023-03-13T02:15:31.583Z,88.08
2023-03-13T02:16:31.688Z,87.57
2023-03-13T02:17:31.582Z,87.67
2023-03-13T02:18:31.550Z,87.88
2023-03-13T02:19:31.585Z,87.67
2023-03-13T02:20:31.527Z,88.14
2023-03-13T02:21:31.511Z,87.43
2023-03-13T02:22:31.519Z,88.18
2023-03-13T02:23:31.555Z,88.18
2023-03-13T02:24:31.506Z,87.88
2023-03-13T02:25:31.481Z,87.98
2023-03-13T02:26:31.500Z,88.29
2023-03-13T02:27:31.457Z,87.98
2023-03-13T02:28:31.446Z,88.08
2023-03-13T02:29:31.444Z,87.98
2023-03-13T02:30:31.464Z,88.59
2023-03-13T02:31:31.615Z,88.74
2023-03-13T02:32:31.457Z,88.49
2023-03-13T02:33:31.412Z,88.29
2023-03-13T02:34:31.372Z,88.18
2023-03-13T02:35:31.441Z,88.49
2023-03-13T02:36:31.355Z,88.49
2023-03-13T02:37:31.337Z,88.39
2023-03-13T02:38:31.339Z,88.39
2023-03-13T02:39:31.330Z,88.59
2023-03-13T02:40:31.312Z,88.80
2023-03-13T02:41:31.289Z,88.49
2023-03-13T02:42:31.277Z,88.59
2023-03-13T02:43:31.333Z,88.29
2023-03-13T02:44:31.285Z,88.59
2023-03-13T02:45:31.426Z,88.70
2023-03-13T02:46:31.266Z,88.18
2023-03-13T02:47:31.234Z,88.80
2023-03-13T02:48:31.236Z,89.11
2023-03-13T02:49:31.203Z,88.95
2023-03-13T02:50:31.210Z,88.80
2023-03-13T02:51:31.204Z,88.08
2023-03-13T02:52:31.224Z,88.76
2023-03-13T02:53:31.170Z,88.86
2023-03-13T02:54:31.170Z,88.76
2023-03-13T02:55:31.152Z,88.76
2023-03-13T02:56:31.140Z,88.39
2023-03-13T02:57:31.125Z,88.04
2023-03-13T02:58:33.567Z,87.63
2023-03-13T02:59:31.094Z,87.84
2023-03-13T03:00:31.163Z,88.14
2023-03-13T03:01:31.073Z,88.90
2023-03-13T03:02:31.106Z,88.39
2023-03-13T03:03:31.092Z,89.01
2023-03-13T03:04:31.044Z,89.01
2023-03-13T03:05:31.041Z,88.59
2023-03-13T03:06:31.016Z,89.42
2023-03-13T03:07:31.045Z,89.42
2023-03-13T03:08:30.998Z,89.01
2023-03-13T03:09:30.997Z,89.21
2023-03-13T03:10:30.972Z,89.93
2023-03-13T03:11:30.965Z,89.83
2023-03-13T03:12:30.986Z,89.99
2023-03-13T03:13:30.939Z,89.83
2023-03-13T03:14:30.947Z,90.24
2023-03-13T03:15:30.933Z,89.83
2023-03-13T03:16:31.027Z,89.89
2023-03-13T03:17:30.905Z,89.62
2023-03-13T03:18:32.620Z,89.48
2023-03-13T03:19:30.876Z,89.48
2023-03-13T03:20:30.873Z,89.48
2023-03-13T03:21:30.871Z,89.83
2023-03-13T03:22:30.877Z,89.83
2023-03-13T03:23:30.841Z,89.99
2023-03-13T03:24:30.832Z,90.03
2023-03-13T03:25:30.824Z,89.58
2023-03-13T03:26:30.817Z,89.48
2023-03-13T03:27:30.781Z,89.89
2023-03-13T03:28:30.777Z,89.58
2023-03-13T03:29:30.777Z,89.89
2023-03-13T03:30:30.780Z,89.89
2023-03-13T03:31:30.777Z,89.58
2023-03-13T03:32:30.807Z,89.89
2023-03-13T03:33:30.714Z,89.27
2023-03-13T03:34:30.721Z,89.69
2023-03-13T03:35:30.755Z,90.20
2023-03-13T03:36:30.681Z,89.58
2023-03-13T03:37:30.688Z,90.30
2023-03-13T03:38:30.662Z,90.40
2023-03-13T03:39:30.670Z,90.40
2023-03-13T03:40:30.657Z,90.30
2023-03-13T03:41:30.631Z,90.56
2023-03-13T03:42:30.630Z,90.20
2023-03-13T03:43:30.619Z,89.99
2023-03-13T03:44:30.598Z,89.99
2023-03-13T03:45:30.647Z,90.20
2023-03-13T03:46:30.574Z,90.61
2023-03-13T03:47:30.692Z,90.61
2023-03-13T03:48:30.550Z,90.40
2023-03-13T03:49:30.539Z,90.26
2023-03-13T03:50:30.544Z,90.30
2023-03-13T03:51:30.517Z,90.81
2023-03-13T03:52:30.496Z,91.53
2023-03-13T03:53:30.512Z,91.84
2023-03-13T03:54:30.487Z,92.55
2023-03-13T03:55:30.514Z,91.63
2023-03-13T03:56:30.481Z,92.66
2023-03-13T03:57:30.489Z,92.91
2023-03-13T03:58:30.442Z,93.01
2023-03-13T03:59:30.424Z,92.60
2023-03-13T04:00:30.436Z,93.32
2023-03-13T04:01:30.402Z,93.32
2023-03-13T04:02:30.472Z,93.32
2023-03-13T04:03:30.524Z,93.32
2023-03-13T04:04:30.372Z,92.80
2023-03-13T04:05:30.361Z,93.73
2023-03-13T04:06:30.350Z,93.63
2023-03-13T04:07:30.410Z,93.93
2023-03-13T04:08:30.348Z,93.83
2023-03-13T04:09:32.033Z,93.93
2023-03-13T04:10:30.308Z,93.83
2023-03-13T04:11:30.338Z,93.83
2023-03-13T04:12:30.299Z,93.83
2023-03-13T04:13:30.305Z,93.46
2023-03-13T04:14:30.267Z,93.67
2023-03-13T04:15:30.281Z,94.29
2023-03-13T04:16:30.316Z,94.80
2023-03-13T04:17:30.227Z,94.59
2023-03-13T04:18:30.227Z,95.01
2023-03-13T04:19:30.212Z,94.70
2023-03-13T04:20:30.225Z,95.10
2023-03-13T04:21:30.188Z,95.10
2023-03-13T04:22:30.173Z,95.87
2023-03-13T04:23:30.195Z,96.03
2023-03-13T04:24:30.155Z,95.46
2023-03-13T04:25:30.140Z,96.18
2023-03-13T04:26:30.132Z,96.28
2023-03-13T04:27:30.139Z,95.97
2023-03-13T04:28:30.136Z,96.48
2023-03-13T04:29:30.112Z,96.28
2023-03-13T04:30:30.136Z,96.53
2023-03-13T04:31:30.104Z,96.39
2023-03-13T04:32:30.115Z,96.69
2023-03-13T04:33:30.071Z,96.48
2023-03-13T04:34:30.041Z,95.97
2023-03-13T04:35:30.088Z,96.39
2023-03-13T04:36:30.025Z,96.18
2023-03-13T04:37:30.018Z,96.48
2023-03-13T04:38:30.034Z,96.28
2023-03-13T04:39:32.668Z,95.77
2023-03-13T04:40:29.986Z,96.08
2023-03-13T04:41:29.972Z,96.28
2023-03-13T04:42:29.988Z,96.18
2023-03-13T04:43:29.994Z,95.56
2023-03-13T04:44:29.932Z,96.48
2023-03-13T04:45:29.922Z,96.33
2023-03-13T04:46:29.978Z,96.43
2023-03-13T04:47:29.904Z,96.39
2023-03-13T04:48:29.906Z,96.48
2023-03-13T04:49:29.876Z,96.48
2023-03-13T04:50:29.862Z,96.48
2023-03-13T04:51:29.858Z,97.05
2023-03-13T04:52:29.877Z,97.15
2023-03-13T04:53:29.849Z,97.36
2023-03-13T04:54:29.837Z,97.36
2023-03-13T04:55:29.807Z,97.05
2023-03-13T04:56:42.708Z,97.05
2023-03-13T04:57:30.811Z,97.15
2023-03-13T04:58:29.775Z,97.25
2023-03-13T04:59:29.817Z,97.05
2023-03-13T05:00:29.776Z,97.15
2023-03-13T05:01:29.808Z,97.05
2023-03-13T05:02:29.754Z,97.15
2023-03-13T05:03:29.738Z,97.05
2023-03-13T05:04:29.750Z,96.90
2023-03-13T05:05:29.802Z,97.25
2023-03-13T05:06:29.689Z,97.05
2023-03-13T05:07:29.674Z,97.10
2023-03-13T05:08:29.686Z,97.20
2023-03-13T05:09:29.653Z,97.00
2023-03-13T05:10:29.659Z,96.48
2023-03-13T05:11:29.640Z,96.48
2023-03-13T05:12:29.617Z,96.39
2023-03-13T05:13:29.625Z,97.00
2023-03-13T05:14:29.600Z,97.10
2023-03-13T05:15:29.612Z,97.10
2023-03-13T05:16:29.644Z,97.20
2023-03-13T05:17:29.594Z,97.00
2023-03-13T05:18:29.587Z,97.00
2023-03-13T05:19:29.558Z,97.00
2023-03-13T05:20:29.550Z,97.20
2023-03-13T05:21:29.599Z,97.20
2023-03-13T05:22:29.529Z,97.31
2023-03-13T05:23:29.556Z,97.06
2023-03-13T05:24:29.502Z,97.10
2023-03-13T05:25:29.554Z,97.06
2023-03-13T05:26:29.494Z,97.16
2023-03-13T05:27:29.505Z,97.06
2023-03-13T05:28:29.454Z,96.85
2023-03-13T05:29:29.530Z,97.00
2023-03-13T05:30:29.467Z,96.65
2023-03-13T05:31:29.612Z,97.00
2023-03-13T05:32:29.466Z,97.62
2023-03-13T05:33:29.396Z,97.57
2023-03-13T05:34:29.384Z,97.16
2023-03-13T05:35:29.454Z,97.37
2023-03-13T05:36:29.378Z,97.52
2023-03-13T05:37:29.441Z,97.06
2023-03-13T05:38:29.341Z,97.52
2023-03-13T05:39:29.391Z,97.62
2023-03-13T05:40:29.337Z,98.54
2023-03-13T05:41:29.306Z,97.88
2023-03-13T05:42:29.342Z,98.29
2023-03-13T05:43:29.330Z,98.39
2023-03-13T05:44:29.296Z,98.50
2023-03-13T05:45:29.278Z,98.08
2023-03-13T05:46:29.344Z,98.29
2023-03-13T05:47:29.262Z,97.99
2023-03-13T05:48:29.308Z,98.25
2023-03-13T05:49:29.327Z,98.20
2023-03-13T05:50:29.254Z,97.99
2023-03-13T05:51:29.221Z,97.74
2023-03-13T05:52:29.176Z,97.13
2023-03-13T05:53:29.166Z,97.23
2023-03-13T05:54:29.168Z,96.78
2023-03-13T05:55:29.146Z,96.78
2023-03-13T05:56:29.152Z,96.92
2023-03-13T05:57:29.203Z,96.82
2023-03-13T05:58:29.121Z,96.37
2023-03-13T05:59:29.128Z,96.16
2023-03-13T06:00:29.119Z,96.12
2023-03-13T06:01:29.095Z,96.16
2023-03-13T06:02:29.077Z,95.75
2023-03-13T06:03:29.221Z,95.70
2023-03-13T06:04:29.200Z,95.40
2023-03-13T06:05:29.173Z,95.70
2023-03-13T06:06:29.017Z,95.81
2023-03-13T06:07:29.033Z,95.61
2023-03-13T06:08:29.028Z,95.70
2023-03-13T06:09:29.005Z,95.50
2023-03-13T06:10:28.988Z,95.29
2023-03-13T06:11:28.992Z,94.78
2023-03-13T06:12:28.977Z,94.99
2023-03-13T06:13:28.934Z,94.89
2023-03-13T06:14:28.953Z,94.54
2023-03-13T06:15:28.910Z,94.84
2023-03-13T06:16:28.976Z,94.74
2023-03-13T06:17:28.897Z,94.74
2023-03-13T06:18:28.880Z,94.95
2023-03-13T06:19:28.940Z,94.54
2023-03-13T06:20:28.853Z,94.64
2023-03-13T06:21:28.857Z,94.84
2023-03-13T06:22:28.830Z,94.84
2023-03-13T06:23:28.849Z,94.54
2023-03-13T06:24:28.830Z,94.95
2023-03-13T06:25:28.826Z,94.64
2023-03-13T06:26:28.798Z,94.64
2023-03-13T06:27:28.788Z,94.23
2023-03-13T06:28:28.797Z,94.43
2023-03-13T06:29:28.800Z,94.12
2023-03-13T06:30:28.783Z,94.49
2023-03-13T06:31:28.759Z,94.33
2023-03-13T06:32:29.054Z,94.54
2023-03-13T06:33:28.839Z,94.43
2023-03-13T06:34:28.709Z,94.54
2023-03-13T06:35:28.747Z,94.18
2023-03-13T06:36:28.754Z,94.12
2023-03-13T06:37:28.681Z,94.08
2023-03-13T06:38:28.698Z,94.18
2023-03-13T06:39:28.662Z,94.08
2023-03-13T06:40:28.671Z,94.23
2023-03-13T06:41:28.695Z,94.49
2023-03-13T06:42:28.638Z,94.29
2023-03-13T06:43:28.694Z,94.18
2023-03-13T06:44:28.600Z,94.33
2023-03-13T06:45:28.605Z,94.39
2023-03-13T06:46:28.637Z,94.23
2023-03-13T06:47:28.555Z,94.39
2023-03-13T06:48:28.565Z,94.59
2023-03-13T06:49:28.547Z,94.95
2023-03-13T06:50:28.576Z,94.43
2023-03-13T06:51:28.537Z,94.49
2023-03-13T06:52:37.779Z,94.43
2023-03-13T06:53:29.500Z,94.43
2023-03-13T06:54:28.489Z,94.39
2023-03-13T06:55:28.505Z,94.23
2023-03-13T06:56:28.470Z,94.29
2023-03-13T06:57:28.487Z,94.90
2023-03-13T06:58:32.600Z,94.39
2023-03-13T06:59:28.499Z,94.49
2023-03-13T07:00:28.585Z,94.59
2023-03-13T07:01:28.595Z,94.49
2023-03-13T07:02:28.445Z,94.43
2023-03-13T07:03:28.426Z,94.08
2023-03-13T07:04:28.389Z,94.54
2023-03-13T07:05:28.373Z,94.59
2023-03-13T07:06:28.405Z,94.39
2023-03-13T07:07:32.347Z,94.18
2023-03-13T07:08:28.339Z,94.08
2023-03-13T07:09:28.329Z,94.59
2023-03-13T07:10:28.340Z,94.29
2023-03-13T07:11:28.307Z,94.49
2023-03-13T07:12:28.314Z,94.34
2023-03-13T07:13:28.270Z,94.34
2023-03-13T07:14:28.273Z,94.39
2023-03-13T07:15:28.283Z,94.59
2023-03-13T07:16:28.284Z,94.90
2023-03-13T07:17:28.291Z,94.49
2023-03-13T07:18:28.259Z,94.90
2023-03-13T07:19:28.215Z,94.90
2023-03-13T07:20:28.314Z,94.80
2023-03-13T07:21:28.202Z,94.80
2023-03-13T07:22:28.214Z,95.88
2023-03-13T07:23:28.186Z,95.62
2023-03-13T07:24:35.224Z,95.72
2023-03-13T07:25:28.139Z,95.47
2023-03-13T07:26:28.195Z,95.67
2023-03-13T07:27:28.187Z,95.88
2023-03-13T07:28:28.145Z,95.17
2023-03-13T07:29:28.121Z,95.37
2023-03-13T07:30:28.127Z,95.47
2023-03-13T07:31:28.199Z,95.67
2023-03-13T07:32:28.149Z,95.78
2023-03-13T07:33:28.051Z,95.17
2023-03-13T07:34:28.070Z,94.75
2023-03-13T07:35:28.026Z,94.85
2023-03-13T07:36:28.134Z,94.96
2023-03-13T07:37:28.009Z,94.75
2023-03-13T07:38:28.003Z,94.30
2023-03-13T07:39:28.039Z,94.51
2023-03-13T07:40:28.072Z,94.20
2023-03-13T07:41:27.958Z,94.40
2023-03-13T07:42:27.960Z,94.51
2023-03-13T07:43:27.948Z,94.40
2023-03-13T07:44:27.932Z,94.51
2023-03-13T07:45:27.989Z,94.20
2023-03-13T07:46:27.897Z,94.26
2023-03-13T07:47:27.941Z,94.46
2023-03-13T07:48:27.903Z,94.06
2023-03-13T07:49:27.871Z,93.85
2023-03-13T07:50:28.190Z,94.15
2023-03-13T07:51:42.543Z,94.15
2023-03-13T07:52:28.854Z,94.21
2023-03-13T07:53:27.877Z,93.74
2023-03-13T07:54:27.820Z,93.09
2023-03-13T07:55:27.836Z,93.19
2023-03-13T07:56:27.785Z,93.09
2023-03-13T07:57:27.801Z,93.54
2023-03-13T07:58:27.785Z,93.29
2023-03-13T07:59:27.785Z,93.29
2023-03-13T08:00:27.744Z,93.09
2023-03-13T08:01:30.488Z,93.19
2023-03-13T08:02:27.866Z,92.88
2023-03-13T08:03:27.759Z,93.40
2023-03-13T08:04:27.724Z,93.29
2023-03-13T08:05:27.686Z,93.40
2023-03-13T08:06:27.726Z,93.29
2023-03-13T08:07:27.676Z,93.40
2023-03-13T08:08:27.670Z,93.19
2023-03-13T08:09:27.715Z,93.29
2023-03-13T08:10:27.708Z,93.09
2023-03-13T08:11:27.664Z,93.70
2023-03-13T08:12:27.609Z,93.60
2023-03-13T08:13:27.599Z,93.19
2023-03-13T08:14:27.601Z,93.19
2023-03-13T08:15:27.569Z,93.29
2023-03-13T08:16:27.709Z,93.40
2023-03-13T08:17:27.552Z,93.40
2023-03-13T08:18:27.558Z,93.09
2023-03-13T08:19:27.532Z,92.99
2023-03-13T08:20:27.515Z,93.40
2023-03-13T08:21:27.516Z,93.91
2023-03-13T08:22:27.504Z,94.21
2023-03-13T08:23:27.502Z,94.01
2023-03-13T08:24:27.509Z,94.32
2023-03-13T08:25:27.483Z,94.32
2023-03-13T08:26:27.458Z,93.91
2023-03-13T08:27:27.459Z,93.91
2023-03-13T08:28:27.450Z,94.01
2023-03-13T08:29:27.414Z,93.91
2023-03-13T08:30:27.550Z,94.01
2023-03-13T08:31:27.388Z,93.70
2023-03-13T08:32:27.429Z,94.01
2023-03-13T08:33:27.390Z,94.11
2023-03-13T08:34:27.422Z,93.91
2023-03-13T08:35:27.401Z,93.80
2023-03-13T08:36:27.353Z,94.01
2023-03-13T08:37:27.324Z,93.86
2023-03-13T08:38:27.315Z,94.11
2023-03-13T08:39:27.328Z,94.07
2023-03-13T08:40:27.298Z,94.07
2023-03-13T08:41:27.276Z,94.07
2023-03-13T08:42:27.271Z,94.07
2023-03-13T08:43:27.283Z,94.07
2023-03-13T08:44:27.276Z,93.86
2023-03-13T08:45:27.236Z,93.86
2023-03-13T08:46:27.323Z,93.45
2023-03-13T08:47:27.210Z,93.35
2023-03-13T08:48:27.226Z,93.66
2023-03-13T08:49:27.213Z,93.05
2023-03-13T08:50:27.183Z,93.35
2023-03-13T08:51:27.171Z,93.35
2023-03-13T08:52:27.164Z,94.07
2023-03-13T08:53:27.148Z,93.86
2023-03-13T08:54:27.171Z,94.27
2023-03-13T08:55:27.141Z,94.17
2023-03-13T08:56:27.142Z,93.76
2023-03-13T08:57:27.113Z,93.76
2023-03-13T08:58:27.111Z,93.82
2023-03-13T08:59:27.109Z,93.92
2023-03-13T09:00:27.093Z,93.71
2023-03-13T09:01:27.067Z,93.92
2023-03-13T09:02:27.132Z,93.88
2023-03-13T09:03:27.143Z,93.98
2023-03-13T09:04:27.029Z,93.26
2023-03-13T09:05:27.018Z,93.32
2023-03-13T09:06:27.009Z,93.52
2023-03-13T09:07:27.000Z,92.41
2023-03-13T09:08:27.013Z,92.30
2023-03-13T09:09:26.981Z,92.30
2023-03-13T09:10:26.958Z,91.96
2023-03-13T09:11:26.977Z,91.89
2023-03-13T09:12:31.204Z,92.16
2023-03-13T09:13:26.970Z,91.96
2023-03-13T09:14:26.924Z,91.50
2023-03-13T09:15:27.048Z,92.01
2023-03-13T09:16:26.898Z,92.18
2023-03-13T09:17:26.897Z,91.71
2023-03-13T09:18:26.932Z,91.91
2023-03-13T09:19:26.875Z,91.71
2023-03-13T09:20:26.885Z,91.46
2023-03-13T09:21:26.923Z,91.36
2023-03-13T09:22:26.829Z,90.24
2023-03-13T09:23:26.813Z,90.44
2023-03-13T09:24:26.903Z,90.85
2023-03-13T09:25:26.798Z,89.94
2023-03-13T09:26:26.804Z,89.83
2023-03-13T09:27:26.801Z,89.89
2023-03-13T09:28:26.763Z,90.05
2023-03-13T09:29:26.991Z,89.95
2023-03-13T09:30:26.746Z,89.34
2023-03-13T09:31:26.907Z,89.76
2023-03-13T09:32:26.806Z,88.65
2023-03-13T09:33:26.715Z,88.20
2023-03-13T09:34:26.698Z,88.10
2023-03-13T09:35:26.684Z,87.73
2023-03-13T09:36:26.746Z,87.53
2023-03-13T09:37:26.667Z,87.84
2023-03-13T09:38:26.650Z,88.04
2023-03-13T09:39:26.654Z,87.23
2023-03-13T09:40:26.637Z,87.63
2023-03-13T09:41:26.614Z,87.02
2023-03-13T09:42:26.639Z,87.53
2023-03-13T09:43:26.604Z,87.53
2023-03-13T09:44:26.625Z,87.93
2023-03-13T09:45:26.600Z,86.71
2023-03-13T09:46:26.671Z,87.29
2023-03-13T09:47:26.579Z,87.49
2023-03-13T09:48:26.565Z,86.57
2023-03-13T09:49:26.536Z,86.27
2023-03-13T09:50:26.541Z,87.08
2023-03-13T09:51:26.506Z,86.88
2023-03-13T09:52:26.545Z,86.77
2023-03-13T09:53:26.484Z,86.98
2023-03-13T09:54:26.480Z,87.18
2023-03-13T09:55:26.454Z,86.22
2023-03-13T09:56:26.447Z,86.22
2023-03-13T09:57:26.459Z,85.52
2023-03-13T09:58:26.431Z,85.72
2023-03-13T09:59:26.418Z,85.72
2023-03-13T10:00:26.427Z,86.39
2023-03-13T10:01:26.439Z,85.58
2023-03-13T10:02:26.420Z,85.68
2023-03-13T10:03:26.402Z,84.60
2023-03-13T10:04:26.445Z,85.72
2023-03-13T10:05:26.354Z,84.80
2023-03-13T10:06:26.365Z,85.41
2023-03-13T10:07:26.327Z,85.41
2023-03-13T10:08:26.338Z,85.62
2023-03-13T10:09:26.302Z,85.31
2023-03-13T10:10:26.306Z,85.62
2023-03-13T10:11:26.298Z,85.17
2023-03-13T10:12:26.268Z,85.41
2023-03-13T10:13:26.259Z,85.72
2023-03-13T10:14:26.244Z,85.62
2023-03-13T10:15:26.252Z,85.31
2023-03-13T10:16:26.253Z,85.52
2023-03-13T10:17:26.219Z,85.66
2023-03-13T10:18:26.199Z,85.55
2023-03-13T10:19:26.210Z,85.62
2023-03-13T10:20:26.210Z,85.35
2023-03-13T10:21:26.164Z,85.35
2023-03-13T10:22:26.187Z,85.46
2023-03-13T10:23:26.169Z,85.55
2023-03-13T10:24:26.168Z,85.55
2023-03-13T10:25:26.129Z,86.02
2023-03-13T10:26:26.131Z,86.02
2023-03-13T10:27:26.103Z,86.02
2023-03-13T10:28:26.117Z,85.62
2023-03-13T10:29:26.108Z,85.46
2023-03-13T10:30:26.064Z,85.72
2023-03-13T10:31:26.108Z,85.66
2023-03-13T10:32:26.096Z,85.52
2023-03-13T10:33:26.035Z,85.82
2023-03-13T10:34:26.041Z,85.41
2023-03-13T10:35:26.135Z,85.41
2023-03-13T10:36:26.000Z,84.80
2023-03-13T10:37:26.019Z,84.80
2023-03-13T10:38:25.985Z,84.91
2023-03-13T10:39:25.995Z,84.80
2023-03-13T10:40:25.993Z,85.01
2023-03-13T10:41:25.941Z,84.60
2023-03-13T10:42:25.933Z,84.70
2023-03-13T10:43:25.924Z,84.80
2023-03-13T10:44:25.922Z,85.52
2023-03-13T10:45:25.923Z,85.41
2023-03-13T10:46:25.924Z,85.11
2023-03-13T10:47:25.875Z,85.52
2023-03-13T10:48:25.870Z,85.62
2023-03-13T10:49:25.873Z,85.21
2023-03-13T10:50:25.883Z,85.31
2023-03-13T10:51:25.870Z,85.25
2023-03-13T10:52:25.882Z,85.46
2023-03-13T10:53:25.814Z,85.62
2023-03-13T10:54:25.823Z,85.41
2023-03-13T10:55:25.783Z,85.62
2023-03-13T10:56:25.782Z,85.31
2023-03-13T10:57:25.795Z,85.52
2023-03-13T10:58:25.766Z,84.97
2023-03-13T10:59:25.742Z,85.78
2023-03-13T11:00:25.738Z,85.68
2023-03-13T11:01:25.752Z,85.58
2023-03-13T11:02:25.772Z,85.38
2023-03-13T11:03:25.839Z,85.17
2023-03-13T11:04:25.685Z,85.53
2023-03-13T11:05:25.674Z,84.63
2023-03-13T11:06:25.660Z,84.72
2023-03-13T11:07:25.688Z,84.77
2023-03-13T11:08:25.718Z,85.17
2023-03-13T11:09:25.636Z,85.53
2023-03-13T11:10:25.616Z,85.17
2023-03-13T11:11:25.607Z,85.13
2023-03-13T11:12:25.595Z,84.93
2023-03-13T11:13:36.093Z,85.27
2023-03-13T11:14:26.647Z,85.17
2023-03-13T11:15:25.621Z,85.47
2023-03-13T11:16:25.616Z,85.38
2023-03-13T11:17:25.555Z,85.47
2023-03-13T11:18:25.532Z,85.58
2023-03-13T11:19:25.517Z,85.68
2023-03-13T11:20:25.528Z,85.58
2023-03-13T11:21:25.527Z,85.78
2023-03-13T11:22:25.528Z,85.47
2023-03-13T11:23:25.528Z,85.03
2023-03-13T11:24:25.484Z,85.53
2023-03-13T11:25:25.475Z,85.19
2023-03-13T11:26:25.480Z,84.72
2023-03-13T11:27:25.452Z,84.58
2023-03-13T11:28:25.453Z,84.69
2023-03-13T11:29:25.460Z,84.48
2023-03-13T11:30:25.419Z,84.42
2023-03-13T11:31:25.435Z,83.87
2023-03-13T11:32:25.424Z,84.78
2023-03-13T11:33:25.364Z,83.91
2023-03-13T11:34:25.362Z,84.42
2023-03-13T11:35:25.346Z,84.83
2023-03-13T11:36:25.374Z,84.58
2023-03-13T11:37:25.315Z,84.38
2023-03-13T11:38:25.321Z,84.48
2023-03-13T11:39:25.407Z,84.44
2023-03-13T11:40:25.291Z,84.75
2023-03-13T11:41:25.296Z,83.83
2023-03-13T11:42:25.282Z,83.83
2023-03-13T11:43:26.121Z,83.94
2023-03-13T11:44:25.262Z,83.53
2023-03-13T11:45:25.243Z,84.14
2023-03-13T11:46:25.417Z,83.73
2023-03-13T11:47:25.241Z,84.24
2023-03-13T11:48:25.243Z,84.34
2023-03-13T11:49:25.199Z,84.14
2023-03-13T11:50:25.175Z,84.34
2023-03-13T11:51:25.180Z,84.64
2023-03-13T11:52:25.153Z,83.73
2023-03-13T11:53:25.210Z,83.63
2023-03-13T11:54:25.166Z,83.94
2023-03-13T11:55:25.164Z,84.69
2023-03-13T11:56:25.105Z,84.08
2023-03-13T11:57:25.149Z,84.24
2023-03-13T11:58:25.170Z,84.78
2023-03-13T11:59:25.078Z,85.39
2023-03-13T12:00:25.059Z,85.39
2023-03-13T12:01:25.048Z,85.30
2023-03-13T12:02:25.174Z,85.39
2023-03-13T12:03:25.037Z,85.30
2023-03-13T12:04:25.028Z,85.50
2023-03-13T12:05:25.123Z,85.50
2023-03-13T12:06:28.201Z,85.46
2023-03-13T12:07:24.983Z,85.50
2023-03-13T12:08:24.994Z,84.75
2023-03-13T12:09:27.187Z,85.46
2023-03-13T12:10:24.978Z,85.15
2023-03-13T12:11:24.970Z,84.85
2023-03-13T12:12:24.932Z,84.64
2023-03-13T12:13:24.940Z,84.64
2023-03-13T12:14:24.925Z,84.50
2023-03-13T12:15:24.901Z,84.06
2023-03-13T12:16:24.930Z,83.25
2023-03-13T12:17:24.924Z,83.25
2023-03-13T12:18:24.887Z,83.01
2023-03-13T12:19:24.855Z,82.70
2023-03-13T12:20:24.841Z,82.10
2023-03-13T12:21:24.839Z,82.40
2023-03-13T12:22:24.823Z,82.90
2023-03-13T12:23:24.897Z,83.41
2023-03-13T12:24:24.812Z,83.01
2023-03-13T12:25:24.873Z,83.01
2023-03-13T12:26:24.869Z,82.90
2023-03-13T12:27:24.797Z,83.21
2023-03-13T12:28:24.834Z,82.16
2023-03-13T12:29:24.736Z,81.85
2023-03-13T12:30:24.792Z,81.96
2023-03-13T12:31:24.725Z,81.85
2023-03-13T12:32:24.770Z,82.32
2023-03-13T12:33:24.722Z,81.54
2023-03-13T12:34:24.712Z,81.20
2023-03-13T12:35:24.831Z,80.45
2023-03-13T12:36:24.713Z,79.71
2023-03-13T12:37:24.653Z,78.84
2023-03-13T12:38:24.640Z,78.67
2023-03-13T12:39:24.657Z,78.37
2023-03-13T12:40:24.617Z,79.28
2023-03-13T12:41:24.618Z,78.97
2023-03-13T12:42:24.615Z,79.28
2023-03-13T12:43:24.622Z,79.99
2023-03-13T12:44:24.604Z,79.88
2023-03-13T12:45:24.744Z,79.79
2023-03-13T12:46:24.632Z,79.38
2023-03-13T12:47:26.929Z,78.81
2023-03-13T12:48:24.641Z,79.72
2023-03-13T12:49:24.545Z,79.72
2023-03-13T12:50:24.527Z,80.12
2023-03-13T12:51:24.529Z,80.53
2023-03-13T12:52:24.526Z,80.57